Monte Cristi, Dominican Republic
Current Conditions -  °F | °C
As of 5:00 PM on Tuesday 27 Jan 2015 (Local Time) from MDST Reporting Station
Broken Clouds Broken Clouds  
Wind Chill: 84°   Ceiling: 2500
Heat Index: 87°   Visibility: 6mi
Dew Point: 68°   Wind: 7mph
Humidity: 58%   Direction: 40°NE
Pressure: 29.88"   Gusts: NA
Location:  19.85°N, 71.65°W
Report Text: MDST 272100Z 04006KT 9999 BKN025 29/20 Q1012
Loading
Personal Weather Stations






























Interactive Weather Map New forecast layout! Learn more

10-Day Weather Forecast

Advertisements
Track Severe Weather on mobile